sensor_id;sensor_type;location;lat;lon;timestamp;temperature;humidity
39371;DHT22;25099;51.946;4.838;2023-08-17T00:02:12;19.00;99.90
39371;DHT22;25099;51.946;4.838;2023-08-17T00:04:38;18.90;99.90
39371;DHT22;25099;51.946;4.838;2023-08-17T00:07:04;19.20;99.90
39371;DHT22;25099;51.946;4.838;2023-08-17T00:09:30;19.10;99.90
39371;DHT22;25099;51.946;4.838;2023-08-17T00:11:56;19.10;99.90
39371;DHT22;25099;51.946;4.838;2023-08-17T00:14:21;18.80;99.90
39371;DHT22;25099;51.946;4.838;2023-08-17T00:16:49;18.80;99.90
39371;DHT22;25099;51.946;4.838;2023-08-17T00:19:14;18.70;99.90
39371;DHT22;25099;51.946;4.838;2023-08-17T00:21:40;18.70;99.90
39371;DHT22;25099;51.946;4.838;2023-08-17T00:24:06;18.80;99.90
39371;DHT22;25099;51.946;4.838;2023-08-17T00:26:31;18.80;99.90
39371;DHT22;25099;51.946;4.838;2023-08-17T00:28:57;18.80;99.90
39371;DHT22;25099;51.946;4.838;2023-08-17T00:31:22;19.00;99.90
39371;DHT22;25099;51.946;4.838;2023-08-17T00:33:48;18.70;99.90
39371;DHT22;25099;51.946;4.838;2023-08-17T00:36:14;18.70;99.90
39371;DHT22;25099;51.946;4.838;2023-08-17T00:38:40;18.70;99.90
39371;DHT22;25099;51.946;4.838;2023-08-17T00:41:06;18.70;99.90
39371;DHT22;25099;51.946;4.838;2023-08-17T00:43:31;18.70;99.90
39371;DHT22;25099;51.946;4.838;2023-08-17T00:45:57;18.90;99.90
39371;DHT22;25099;51.946;4.838;2023-08-17T00:48:23;18.70;99.90
39371;DHT22;25099;51.946;4.838;2023-08-17T00:50:50;18.70;99.90
39371;DHT22;25099;51.946;4.838;2023-08-17T00:53:18;19.20;99.90
39371;DHT22;25099;51.946;4.838;2023-08-17T00:55:45;18.60;99.90
39371;DHT22;25099;51.946;4.838;2023-08-17T00:58:11;18.60;99.90
39371;DHT22;25099;51.946;4.838;2023-08-17T01:00:37;18.60;99.90
39371;DHT22;25099;51.946;4.838;2023-08-17T01:03:03;18.60;99.90
39371;DHT22;25099;51.946;4.838;2023-08-17T01:05:30;18.50;99.90
39371;DHT22;25099;51.946;4.838;2023-08-17T01:07:58;18.50;99.90
39371;DHT22;25099;51.946;4.838;2023-08-17T01:10:31;18.50;99.90
39371;DHT22;25099;51.946;4.838;2023-08-17T01:13:09;18.50;99.90
39371;DHT22;25099;51.946;4.838;2023-08-17T01:15:39;18.80;99.90
39371;DHT22;25099;51.946;4.838;2023-08-17T01:18:23;18.90;99.90
39371;DHT22;25099;51.946;4.838;2023-08-17T01:20:53;18.40;99.90
39371;DHT22;25099;51.946;4.838;2023-08-17T01:23:19;18.40;99.90
39371;DHT22;25099;51.946;4.838;2023-08-17T01:25:45;18.40;99.90
39371;DHT22;25099;51.946;4.838;2023-08-17T01:28:10;18.40;99.90
39371;DHT22;25099;51.946;4.838;2023-08-17T01:30:52;18.40;99.90
39371;DHT22;25099;51.946;4.838;2023-08-17T01:34:00;18.50;99.90
39371;DHT22;25099;51.946;4.838;2023-08-17T01:36:25;18.40;99.90
39371;DHT22;25099;51.946;4.838;2023-08-17T01:38:52;18.40;99.90
39371;DHT22;25099;51.946;4.838;2023-08-17T01:41:20;18.40;99.90
39371;DHT22;25099;51.946;4.838;2023-08-17T01:43:48;18.40;99.90
39371;DHT22;25099;51.946;4.838;2023-08-17T01:46:14;18.40;99.90
39371;DHT22;25099;51.946;4.838;2023-08-17T01:48:41;18.40;99.90
39371;DHT22;25099;51.946;4.838;2023-08-17T01:51:07;19.10;99.90
39371;DHT22;25099;51.946;4.838;2023-08-17T01:53:33;18.30;99.90
39371;DHT22;25099;51.946;4.838;2023-08-17T01:55:58;18.30;99.90
39371;DHT22;25099;51.946;4.838;2023-08-17T01:58:24;18.30;99.90
39371;DHT22;25099;51.946;4.838;2023-08-17T02:00:49;18.30;99.90
39371;DHT22;25099;51.946;4.838;2023-08-17T02:03:15;18.30;99.90
39371;DHT22;25099;51.946;4.838;2023-08-17T02:05:45;18.30;99.90
39371;DHT22;25099;51.946;4.838;2023-08-17T02:08:10;18.20;99.90
39371;DHT22;25099;51.946;4.838;2023-08-17T02:10:36;18.30;99.90
39371;DHT22;25099;51.946;4.838;2023-08-17T02:13:02;18.30;99.90
39371;DHT22;25099;51.946;4.838;2023-08-17T02:15:28;18.20;99.90
39371;DHT22;25099;51.946;4.838;2023-08-17T02:17:53;18.30;99.90
39371;DHT22;25099;51.946;4.838;2023-08-17T02:20:19;18.20;99.90
39371;DHT22;25099;51.946;4.838;2023-08-17T02:22:45;18.10;99.90
39371;DHT22;25099;51.946;4.838;2023-08-17T02:25:10;18.10;99.90
39371;DHT22;25099;51.946;4.838;2023-08-17T02:27:36;18.10;99.90
39371;DHT22;25099;51.946;4.838;2023-08-17T02:30:05;18.00;99.90
39371;DHT22;25099;51.946;4.838;2023-08-17T02:32:31;18.00;99.90
39371;DHT22;25099;51.946;4.838;2023-08-17T02:34:57;18.00;99.90
39371;DHT22;25099;51.946;4.838;2023-08-17T02:37:22;18.00;99.90
39371;DHT22;25099;51.946;4.838;2023-08-17T02:39:48;18.60;99.90
39371;DHT22;25099;51.946;4.838;2023-08-17T02:42:13;18.10;99.90
39371;DHT22;25099;51.946;4.838;2023-08-17T02:44:39;18.30;99.90
39371;DHT22;25099;51.946;4.838;2023-08-17T02:47:05;18.00;99.90
39371;DHT22;25099;51.946;4.838;2023-08-17T02:49:30;18.00;99.90
39371;DHT22;25099;51.946;4.838;2023-08-17T02:51:56;18.10;99.90
39371;DHT22;25099;51.946;4.838;2023-08-17T02:54:21;18.10;99.90
39371;DHT22;25099;51.946;4.838;2023-08-17T02:56:47;18.30;99.90
39371;DHT22;25099;51.946;4.838;2023-08-17T02:59:13;18.10;99.90
39371;DHT22;25099;51.946;4.838;2023-08-17T03:01:39;18.10;99.90
39371;DHT22;25099;51.946;4.838;2023-08-17T03:04:04;18.10;99.90
39371;DHT22;25099;51.946;4.838;2023-08-17T03:06:30;18.00;99.90
39371;DHT22;25099;51.946;4.838;2023-08-17T03:08:55;18.00;99.90
39371;DHT22;25099;51.946;4.838;2023-08-17T03:11:21;18.00;99.90
39371;DHT22;25099;51.946;4.838;2023-08-17T03:13:46;18.00;99.90
39371;DHT22;25099;51.946;4.838;2023-08-17T03:16:14;18.30;99.90
39371;DHT22;25099;51.946;4.838;2023-08-17T03:18:39;18.00;99.90
39371;DHT22;25099;51.946;4.838;2023-08-17T03:21:05;18.10;99.90
39371;DHT22;25099;51.946;4.838;2023-08-17T03:23:32;17.90;99.90
39371;DHT22;25099;51.946;4.838;2023-08-17T03:25:58;17.90;99.90
39371;DHT22;25099;51.946;4.838;2023-08-17T03:28:23;17.90;99.90
39371;DHT22;25099;51.946;4.838;2023-08-17T03:30:50;17.90;99.90
39371;DHT22;25099;51.946;4.838;2023-08-17T03:33:16;18.20;99.90
39371;DHT22;25099;51.946;4.838;2023-08-17T03:35:41;18.00;99.90
39371;DHT22;25099;51.946;4.838;2023-08-17T03:38:07;17.90;99.90
39371;DHT22;25099;51.946;4.838;2023-08-17T03:40:32;17.90;99.90
39371;DHT22;25099;51.946;4.838;2023-08-17T03:42:58;17.90;99.90
39371;DHT22;25099;51.946;4.838;2023-08-17T03:45:23;17.90;99.90
39371;DHT22;25099;51.946;4.838;2023-08-17T03:47:49;18.90;99.90
39371;DHT22;25099;51.946;4.838;2023-08-17T03:50:15;18.60;99.90
39371;DHT22;25099;51.946;4.838;2023-08-17T03:52:40;17.90;99.90
39371;DHT22;25099;51.946;4.838;2023-08-17T03:55:06;17.90;99.90
39371;DHT22;25099;51.946;4.838;2023-08-17T03:57:33;17.90;99.90
39371;DHT22;25099;51.946;4.838;2023-08-17T03:59:58;17.90;99.90
39371;DHT22;25099;51.946;4.838;2023-08-17T04:02:24;17.90;99.90
39371;DHT22;25099;51.946;4.838;2023-08-17T04:04:49;17.90;99.90
39371;DHT22;25099;51.946;4.838;2023-08-17T04:07:21;17.90;99.90
39371;DHT22;25099;51.946;4.838;2023-08-17T04:09:48;18.50;99.90
39371;DHT22;25099;51.946;4.838;2023-08-17T04:12:13;17.80;99.90
39371;DHT22;25099;51.946;4.838;2023-08-17T04:14:39;17.80;99.90
39371;DHT22;25099;51.946;4.838;2023-08-17T04:17:05;17.80;99.90
39371;DHT22;25099;51.946;4.838;2023-08-17T04:19:30;18.10;99.90
39371;DHT22;25099;51.946;4.838;2023-08-17T04:21:56;17.70;99.90
39371;DHT22;25099;51.946;4.838;2023-08-17T04:24:21;18.00;99.90
39371;DHT22;25099;51.946;4.838;2023-08-17T04:26:47;18.40;99.90
39371;DHT22;25099;51.946;4.838;2023-08-17T04:29:13;17.90;99.90
39371;DHT22;25099;51.946;4.838;2023-08-17T04:31:38;17.70;99.90
39371;DHT22;25099;51.946;4.838;2023-08-17T04:34:04;18.10;99.90
39371;DHT22;25099;51.946;4.838;2023-08-17T04:36:30;17.70;99.90
39371;DHT22;25099;51.946;4.838;2023-08-17T04:38:56;17.70;99.90
39371;DHT22;25099;51.946;4.838;2023-08-17T04:41:21;17.90;99.90
39371;DHT22;25099;51.946;4.838;2023-08-17T04:43:47;17.70;99.90
39371;DHT22;25099;51.946;4.838;2023-08-17T04:46:14;17.70;99.90
39371;DHT22;25099;51.946;4.838;2023-08-17T04:48:40;17.70;99.90
39371;DHT22;25099;51.946;4.838;2023-08-17T04:51:06;18.10;99.90
39371;DHT22;25099;51.946;4.838;2023-08-17T04:53:31;17.70;99.90
39371;DHT22;25099;51.946;4.838;2023-08-17T04:55:58;17.70;99.90
39371;DHT22;25099;51.946;4.838;2023-08-17T04:58:24;17.70;99.90
39371;DHT22;25099;51.946;4.838;2023-08-17T05:00:50;18.00;99.90
39371;DHT22;25099;51.946;4.838;2023-08-17T05:03:16;17.70;99.90
39371;DHT22;25099;51.946;4.838;2023-08-17T05:05:42;17.70;99.90
39371;DHT22;25099;51.946;4.838;2023-08-17T05:08:07;17.70;99.90
39371;DHT22;25099;51.946;4.838;2023-08-17T05:10:33;17.70;99.90
39371;DHT22;25099;51.946;4.838;2023-08-17T05:12:59;17.70;99.90
39371;DHT22;25099;51.946;4.838;2023-08-17T05:15:25;17.60;99.90
39371;DHT22;25099;51.946;4.838;2023-08-17T05:17:50;17.60;99.90
39371;DHT22;25099;51.946;4.838;2023-08-17T05:20:16;17.70;99.90
39371;DHT22;25099;51.946;4.838;2023-08-17T05:22:42;17.70;99.90
39371;DHT22;25099;51.946;4.838;2023-08-17T05:25:07;18.20;99.90
39371;DHT22;25099;51.946;4.838;2023-08-17T05:27:33;17.70;99.90
39371;DHT22;25099;51.946;4.838;2023-08-17T05:29:59;17.70;99.90
39371;DHT22;25099;51.946;4.838;2023-08-17T05:32:24;17.80;99.90
39371;DHT22;25099;51.946;4.838;2023-08-17T05:34:50;18.20;99.90
39371;DHT22;25099;51.946;4.838;2023-08-17T05:37:15;18.10;99.90
39371;DHT22;25099;51.946;4.838;2023-08-17T05:39:42;17.80;99.90
39371;DHT22;25099;51.946;4.838;2023-08-17T05:42:07;17.60;99.90
39371;DHT22;25099;51.946;4.838;2023-08-17T05:44:35;17.70;99.90
39371;DHT22;25099;51.946;4.838;2023-08-17T05:47:00;17.70;99.90
39371;DHT22;25099;51.946;4.838;2023-08-17T05:49:26;17.60;99.90
39371;DHT22;25099;51.946;4.838;2023-08-17T05:51:53;17.90;99.90
39371;DHT22;25099;51.946;4.838;2023-08-17T05:54:19;17.70;99.90
39371;DHT22;25099;51.946;4.838;2023-08-17T05:56:44;17.70;99.90
39371;DHT22;25099;51.946;4.838;2023-08-17T05:59:12;17.70;99.90
39371;DHT22;25099;51.946;4.838;2023-08-17T06:01:38;17.80;99.90
39371;DHT22;25099;51.946;4.838;2023-08-17T06:04:04;17.70;99.90
39371;DHT22;25099;51.946;4.838;2023-08-17T06:06:30;17.70;99.90
39371;DHT22;25099;51.946;4.838;2023-08-17T06:08:56;17.80;99.90
39371;DHT22;25099;51.946;4.838;2023-08-17T06:11:21;17.80;99.90
39371;DHT22;25099;51.946;4.838;2023-08-17T06:13:48;17.70;99.90
39371;DHT22;25099;51.946;4.838;2023-08-17T06:16:14;17.80;99.90
39371;DHT22;25099;51.946;4.838;2023-08-17T06:18:39;17.80;99.90
39371;DHT22;25099;51.946;4.838;2023-08-17T06:21:05;17.90;99.90
39371;DHT22;25099;51.946;4.838;2023-08-17T06:23:30;17.90;99.90
39371;DHT22;25099;51.946;4.838;2023-08-17T06:25:57;17.90;99.90
39371;DHT22;25099;51.946;4.838;2023-08-17T06:28:24;17.90;99.90
39371;DHT22;25099;51.946;4.838;2023-08-17T06:30:54;17.90;99.90
39371;DHT22;25099;51.946;4.838;2023-08-17T06:33:20;18.00;99.90
39371;DHT22;25099;51.946;4.838;2023-08-17T06:35:45;18.10;99.90
39371;DHT22;25099;51.946;4.838;2023-08-17T06:38:11;18.00;99.90
39371;DHT22;25099;51.946;4.838;2023-08-17T06:40:37;18.00;99.90
39371;DHT22;25099;51.946;4.838;2023-08-17T06:43:03;18.00;99.90
39371;DHT22;25099;51.946;4.838;2023-08-17T06:45:30;18.00;99.90
39371;DHT22;25099;51.946;4.838;2023-08-17T06:47:56;18.70;99.90
39371;DHT22;25099;51.946;4.838;2023-08-17T06:50:22;18.10;99.90
39371;DHT22;25099;51.946;4.838;2023-08-17T06:52:47;19.10;99.90
39371;DHT22;25099;51.946;4.838;2023-08-17T06:55:13;18.10;99.90
39371;DHT22;25099;51.946;4.838;2023-08-17T06:57:38;18.10;99.90
39371;DHT22;25099;51.946;4.838;2023-08-17T07:00:04;18.10;99.90
39371;DHT22;25099;51.946;4.838;2023-08-17T07:02:31;18.00;99.90
39371;DHT22;25099;51.946;4.838;2023-08-17T07:04:56;18.00;99.90
39371;DHT22;25099;51.946;4.838;2023-08-17T07:07:22;18.10;99.90
39371;DHT22;25099;51.946;4.838;2023-08-17T07:09:48;18.20;99.90
39371;DHT22;25099;51.946;4.838;2023-08-17T07:12:13;18.10;99.90
39371;DHT22;25099;51.946;4.838;2023-08-17T07:14:39;18.40;99.90
39371;DHT22;25099;51.946;4.838;2023-08-17T07:17:04;18.10;99.90
39371;DHT22;25099;51.946;4.838;2023-08-17T07:19:30;18.30;99.90
39371;DHT22;25099;51.946;4.838;2023-08-17T07:21:55;18.20;99.90
39371;DHT22;25099;51.946;4.838;2023-08-17T07:24:21;18.20;99.90
39371;DHT22;25099;51.946;4.838;2023-08-17T07:26:47;18.20;99.90
39371;DHT22;25099;51.946;4.838;2023-08-17T07:29:12;18.40;99.90
39371;DHT22;25099;51.946;4.838;2023-08-17T07:31:38;18.30;99.90
39371;DHT22;25099;51.946;4.838;2023-08-17T07:34:05;18.40;99.90
39371;DHT22;25099;51.946;4.838;2023-08-17T07:36:31;19.20;99.90
39371;DHT22;25099;51.946;4.838;2023-08-17T07:38:57;18.60;99.90
39371;DHT22;25099;51.946;4.838;2023-08-17T07:41:23;18.50;99.90
39371;DHT22;25099;51.946;4.838;2023-08-17T07:43:48;18.50;99.90
39371;DHT22;25099;51.946;4.838;2023-08-17T07:46:14;18.50;99.90
39371;DHT22;25099;51.946;4.838;2023-08-17T07:48:39;18.50;99.90
39371;DHT22;25099;51.946;4.838;2023-08-17T07:51:05;18.80;99.90
39371;DHT22;25099;51.946;4.838;2023-08-17T07:53:30;18.50;99.90
39371;DHT22;25099;51.946;4.838;2023-08-17T07:55:56;18.50;99.90
39371;DHT22;25099;51.946;4.838;2023-08-17T07:58:21;18.40;99.90
39371;DHT22;25099;51.946;4.838;2023-08-17T08:00:47;18.40;99.90
39371;DHT22;25099;51.946;4.838;2023-08-17T08:03:14;18.90;99.90
39371;DHT22;25099;51.946;4.838;2023-08-17T08:05:40;18.40;99.90
39371;DHT22;25099;51.946;4.838;2023-08-17T08:08:05;19.00;99.90
39371;DHT22;25099;51.946;4.838;2023-08-17T08:10:31;18.40;99.90
39371;DHT22;25099;51.946;4.838;2023-08-17T08:12:57;18.50;99.90
39371;DHT22;25099;51.946;4.838;2023-08-17T08:15:23;18.50;99.90
39371;DHT22;25099;51.946;4.838;2023-08-17T08:17:48;18.50;99.90
39371;DHT22;25099;51.946;4.838;2023-08-17T08:20:14;18.60;99.90
39371;DHT22;25099;51.946;4.838;2023-08-17T08:22:40;18.60;99.90
39371;DHT22;25099;51.946;4.838;2023-08-17T08:25:05;19.20;99.90
39371;DHT22;25099;51.946;4.838;2023-08-17T08:27:31;18.60;99.90
39371;DHT22;25099;51.946;4.838;2023-08-17T08:29:56;18.70;99.90
39371;DHT22;25099;51.946;4.838;2023-08-17T08:32:22;18.70;99.90
39371;DHT22;25099;51.946;4.838;2023-08-17T08:34:48;18.70;99.90
39371;DHT22;25099;51.946;4.838;2023-08-17T08:37:14;18.80;99.90
39371;DHT22;25099;51.946;4.838;2023-08-17T08:39:53;18.80;99.90
39371;DHT22;25099;51.946;4.838;2023-08-17T08:42:20;18.80;99.90
39371;DHT22;25099;51.946;4.838;2023-08-17T08:44:46;18.90;99.90
39371;DHT22;25099;51.946;4.838;2023-08-17T08:47:13;18.90;99.90
39371;DHT22;25099;51.946;4.838;2023-08-17T08:49:40;19.50;99.90
39371;DHT22;25099;51.946;4.838;2023-08-17T08:52:11;19.00;99.90
39371;DHT22;25099;51.946;4.838;2023-08-17T08:54:38;19.00;99.90
39371;DHT22;25099;51.946;4.838;2023-08-17T08:57:10;19.30;99.90
39371;DHT22;25099;51.946;4.838;2023-08-17T08:59:38;19.40;99.90
39371;DHT22;25099;51.946;4.838;2023-08-17T09:02:14;19.10;99.90
39371;DHT22;25099;51.946;4.838;2023-08-17T09:04:44;19.10;99.90
39371;DHT22;25099;51.946;4.838;2023-08-17T09:07:12;19.10;99.90
39371;DHT22;25099;51.946;4.838;2023-08-17T09:09:38;19.00;99.90
39371;DHT22;25099;51.946;4.838;2023-08-17T09:12:05;19.30;99.90
39371;DHT22;25099;51.946;4.838;2023-08-17T09:14:32;19.10;99.90
39371;DHT22;25099;51.946;4.838;2023-08-17T09:16:58;19.20;99.90
39371;DHT22;25099;51.946;4.838;2023-08-17T09:19:24;19.30;99.90
39371;DHT22;25099;51.946;4.838;2023-08-17T09:21:50;19.40;99.90
39371;DHT22;25099;51.946;4.838;2023-08-17T09:24:16;19.40;99.90
39371;DHT22;25099;51.946;4.838;2023-08-17T09:26:42;19.50;99.90
39371;DHT22;25099;51.946;4.838;2023-08-17T09:29:20;19.50;99.90
39371;DHT22;25099;51.946;4.838;2023-08-17T09:31:47;19.60;99.90
39371;DHT22;25099;51.946;4.838;2023-08-17T09:34:14;19.60;99.90
39371;DHT22;25099;51.946;4.838;2023-08-17T09:36:40;19.60;99.90
39371;DHT22;25099;51.946;4.838;2023-08-17T09:39:05;19.60;99.90
39371;DHT22;25099;51.946;4.838;2023-08-17T09:41:38;19.70;99.90
39371;DHT22;25099;51.946;4.838;2023-08-17T09:44:05;19.70;99.90
39371;DHT22;25099;51.946;4.838;2023-08-17T09:46:31;19.70;99.90
39371;DHT22;25099;51.946;4.838;2023-08-17T09:48:56;19.70;99.90
39371;DHT22;25099;51.946;4.838;2023-08-17T09:51:22;19.80;99.90
39371;DHT22;25099;51.946;4.838;2023-08-17T09:53:52;19.70;99.90
39371;DHT22;25099;51.946;4.838;2023-08-17T09:56:24;19.90;99.90
39371;DHT22;25099;51.946;4.838;2023-08-17T09:58:50;19.90;99.90
39371;DHT22;25099;51.946;4.838;2023-08-17T10:01:17;19.90;99.90
39371;DHT22;25099;51.946;4.838;2023-08-17T10:03:44;20.00;99.90
39371;DHT22;25099;51.946;4.838;2023-08-17T10:06:13;20.10;99.90
39371;DHT22;25099;51.946;4.838;2023-08-17T10:08:47;20.00;99.90
39371;DHT22;25099;51.946;4.838;2023-08-17T10:11:17;20.00;99.90
39371;DHT22;25099;51.946;4.838;2023-08-17T10:13:51;20.10;99.90
39371;DHT22;25099;51.946;4.838;2023-08-17T10:16:23;20.10;99.90
39371;DHT22;25099;51.946;4.838;2023-08-17T10:22:15;20.20;99.90
39371;DHT22;25099;51.946;4.838;2023-08-17T10:24:42;20.30;99.90
39371;DHT22;25099;51.946;4.838;2023-08-17T10:27:10;20.30;99.90
39371;DHT22;25099;51.946;4.838;2023-08-17T10:29:38;20.30;99.90
39371;DHT22;25099;51.946;4.838;2023-08-17T10:32:06;20.30;99.90
39371;DHT22;25099;51.946;4.838;2023-08-17T10:34:34;20.30;99.90
39371;DHT22;25099;51.946;4.838;2023-08-17T10:37:00;21.00;99.90
39371;DHT22;25099;51.946;4.838;2023-08-17T10:39:28;20.40;99.90
39371;DHT22;25099;51.946;4.838;2023-08-17T10:41:54;20.40;99.90
39371;DHT22;25099;51.946;4.838;2023-08-17T10:44:45;20.40;99.90
39371;DHT22;25099;51.946;4.838;2023-08-17T10:47:26;20.40;99.90
39371;DHT22;25099;51.946;4.838;2023-08-17T10:49:57;20.50;99.90
39371;DHT22;25099;51.946;4.838;2023-08-17T10:52:34;20.50;99.90
39371;DHT22;25099;51.946;4.838;2023-08-17T10:57:42;20.50;99.90
39371;DHT22;25099;51.946;4.838;2023-08-17T11:02:54;20.60;99.90
39371;DHT22;25099;51.946;4.838;2023-08-17T11:08:10;20.60;99.90
39371;DHT22;25099;51.946;4.838;2023-08-17T11:10:36;20.70;99.90
39371;DHT22;25099;51.946;4.838;2023-08-17T11:13:03;20.60;99.90
39371;DHT22;25099;51.946;4.838;2023-08-17T11:15:40;20.70;99.90
39371;DHT22;25099;51.946;4.838;2023-08-17T11:18:11;20.80;99.90
39371;DHT22;25099;51.946;4.838;2023-08-17T11:20:39;20.80;99.90
39371;DHT22;25099;51.946;4.838;2023-08-17T11:23:05;20.80;99.90
39371;DHT22;25099;51.946;4.838;2023-08-17T11:25:32;20.90;99.90
39371;DHT22;25099;51.946;4.838;2023-08-17T11:27:59;21.00;99.90
39371;DHT22;25099;51.946;4.838;2023-08-17T11:30:25;20.90;99.90
39371;DHT22;25099;51.946;4.838;2023-08-17T11:32:54;20.90;99.90
39371;DHT22;25099;51.946;4.838;2023-08-17T11:35:20;20.90;99.90
39371;DHT22;25099;51.946;4.838;2023-08-17T11:37:47;20.90;99.90
39371;DHT22;25099;51.946;4.838;2023-08-17T11:40:16;20.80;99.90
39371;DHT22;25099;51.946;4.838;2023-08-17T11:42:43;21.00;99.90
39371;DHT22;25099;51.946;4.838;2023-08-17T11:45:09;20.90;99.90
39371;DHT22;25099;51.946;4.838;2023-08-17T11:47:35;20.90;99.90
39371;DHT22;25099;51.946;4.838;2023-08-17T11:50:02;20.90;99.90
39371;DHT22;25099;51.946;4.838;2023-08-17T11:52:29;20.90;99.90
39371;DHT22;25099;51.946;4.838;2023-08-17T11:54:56;21.60;99.90
39371;DHT22;25099;51.946;4.838;2023-08-17T11:57:22;21.00;99.90
39371;DHT22;25099;51.946;4.838;2023-08-17T11:59:47;21.00;99.90
39371;DHT22;25099;51.946;4.838;2023-08-17T12:02:13;21.00;99.90
39371;DHT22;25099;51.946;4.838;2023-08-17T12:04:38;21.00;99.90
39371;DHT22;25099;51.946;4.838;2023-08-17T12:07:05;21.00;99.90
39371;DHT22;25099;51.946;4.838;2023-08-17T12:09:33;21.00;99.90
39371;DHT22;25099;51.946;4.838;2023-08-17T12:12:00;20.90;99.90
39371;DHT22;25099;51.946;4.838;2023-08-17T12:14:27;20.90;99.90
39371;DHT22;25099;51.946;4.838;2023-08-17T12:16:54;20.80;99.90
39371;DHT22;25099;51.946;4.838;2023-08-17T12:19:20;20.90;99.90
39371;DHT22;25099;51.946;4.838;2023-08-17T12:21:49;20.90;99.90
39371;DHT22;25099;51.946;4.838;2023-08-17T12:24:14;21.00;99.90
39371;DHT22;25099;51.946;4.838;2023-08-17T12:26:42;20.90;99.90
39371;DHT22;25099;51.946;4.838;2023-08-17T12:29:09;21.00;99.90
39371;DHT22;25099;51.946;4.838;2023-08-17T12:31:35;21.00;99.90
39371;DHT22;25099;51.946;4.838;2023-08-17T12:34:01;21.50;99.90
39371;DHT22;25099;51.946;4.838;2023-08-17T12:36:26;21.00;99.90
39371;DHT22;25099;51.946;4.838;2023-08-17T12:38:52;21.10;99.90
39371;DHT22;25099;51.946;4.838;2023-08-17T12:41:18;21.00;99.90
39371;DHT22;25099;51.946;4.838;2023-08-17T12:43:43;21.00;99.90
39371;DHT22;25099;51.946;4.838;2023-08-17T12:46:09;21.10;99.90
39371;DHT22;25099;51.946;4.838;2023-08-17T12:48:36;21.10;99.90
39371;DHT22;25099;51.946;4.838;2023-08-17T12:51:02;21.00;99.90
39371;DHT22;25099;51.946;4.838;2023-08-17T12:53:27;21.00;99.90
39371;DHT22;25099;51.946;4.838;2023-08-17T12:55:53;20.90;99.90
39371;DHT22;25099;51.946;4.838;2023-08-17T12:58:19;21.00;99.90
39371;DHT22;25099;51.946;4.838;2023-08-17T13:00:44;21.00;99.90
39371;DHT22;25099;51.946;4.838;2023-08-17T13:03:10;20.90;99.90
39371;DHT22;25099;51.946;4.838;2023-08-17T13:05:35;21.10;99.90
39371;DHT22;25099;51.946;4.838;2023-08-17T13:08:01;20.90;99.90
39371;DHT22;25099;51.946;4.838;2023-08-17T13:10:27;20.90;99.90
39371;DHT22;25099;51.946;4.838;2023-08-17T13:12:53;21.10;99.90
39371;DHT22;25099;51.946;4.838;2023-08-17T13:15:24;20.90;99.90
39371;DHT22;25099;51.946;4.838;2023-08-17T13:17:50;20.90;99.90
39371;DHT22;25099;51.946;4.838;2023-08-17T13:20:16;20.90;99.90
39371;DHT22;25099;51.946;4.838;2023-08-17T13:22:41;20.90;99.90
39371;DHT22;25099;51.946;4.838;2023-08-17T13:25:07;20.80;99.90
39371;DHT22;25099;51.946;4.838;2023-08-17T13:27:33;20.90;99.90
39371;DHT22;25099;51.946;4.838;2023-08-17T13:29:59;20.90;99.90
39371;DHT22;25099;51.946;4.838;2023-08-17T13:32:25;20.80;99.90
39371;DHT22;25099;51.946;4.838;2023-08-17T13:34:51;20.90;99.90
39371;DHT22;25099;51.946;4.838;2023-08-17T13:37:17;20.80;99.90
39371;DHT22;25099;51.946;4.838;2023-08-17T13:39:43;20.80;99.90
39371;DHT22;25099;51.946;4.838;2023-08-17T13:42:08;21.00;99.90
39371;DHT22;25099;51.946;4.838;2023-08-17T13:44:34;20.80;99.90
39371;DHT22;25099;51.946;4.838;2023-08-17T13:46:59;20.80;99.90
39371;DHT22;25099;51.946;4.838;2023-08-17T13:49:25;20.70;99.90
39371;DHT22;25099;51.946;4.838;2023-08-17T13:51:53;20.70;99.90
39371;DHT22;25099;51.946;4.838;2023-08-17T13:54:18;21.40;99.90
39371;DHT22;25099;51.946;4.838;2023-08-17T13:56:44;21.00;99.90
39371;DHT22;25099;51.946;4.838;2023-08-17T13:59:09;20.70;99.90
39371;DHT22;25099;51.946;4.838;2023-08-17T14:01:35;21.40;99.90
39371;DHT22;25099;51.946;4.838;2023-08-17T14:04:01;20.70;99.90
39371;DHT22;25099;51.946;4.838;2023-08-17T14:06:29;20.60;99.90
39371;DHT22;25099;51.946;4.838;2023-08-17T14:08:54;20.60;99.90
39371;DHT22;25099;51.946;4.838;2023-08-17T14:11:20;20.60;99.90
39371;DHT22;25099;51.946;4.838;2023-08-17T14:13:45;20.60;99.90
39371;DHT22;25099;51.946;4.838;2023-08-17T14:16:11;20.60;99.90
39371;DHT22;25099;51.946;4.838;2023-08-17T14:18:37;20.60;99.90
39371;DHT22;25099;51.946;4.838;2023-08-17T14:21:02;20.60;99.90
39371;DHT22;25099;51.946;4.838;2023-08-17T14:23:28;20.70;99.90
39371;DHT22;25099;51.946;4.838;2023-08-17T14:25:53;20.70;99.90
39371;DHT22;25099;51.946;4.838;2023-08-17T14:28:19;20.70;99.90
39371;DHT22;25099;51.946;4.838;2023-08-17T14:30:45;20.70;99.90
39371;DHT22;25099;51.946;4.838;2023-08-17T14:33:11;20.70;99.90
39371;DHT22;25099;51.946;4.838;2023-08-17T14:35:38;20.70;99.90
39371;DHT22;25099;51.946;4.838;2023-08-17T14:38:03;20.70;99.90
39371;DHT22;25099;51.946;4.838;2023-08-17T14:40:29;20.70;99.90
39371;DHT22;25099;51.946;4.838;2023-08-17T14:42:55;20.80;99.90
39371;DHT22;25099;51.946;4.838;2023-08-17T14:45:20;21.60;99.90
39371;DHT22;25099;51.946;4.838;2023-08-17T14:47:46;20.60;99.90
39371;DHT22;25099;51.946;4.838;2023-08-17T14:50:12;20.70;99.90
39371;DHT22;25099;51.946;4.838;2023-08-17T14:52:39;20.70;99.90
39371;DHT22;25099;51.946;4.838;2023-08-17T14:55:05;20.70;99.90
39371;DHT22;25099;51.946;4.838;2023-08-17T14:57:31;20.70;99.90
39371;DHT22;25099;51.946;4.838;2023-08-17T14:59:56;20.70;99.90
39371;DHT22;25099;51.946;4.838;2023-08-17T15:02:22;20.70;99.90
39371;DHT22;25099;51.946;4.838;2023-08-17T15:04:48;20.70;99.90
39371;DHT22;25099;51.946;4.838;2023-08-17T15:07:13;20.70;99.90
39371;DHT22;25099;51.946;4.838;2023-08-17T15:09:39;20.70;99.90
39371;DHT22;25099;51.946;4.838;2023-08-17T15:12:05;20.70;99.90
39371;DHT22;25099;51.946;4.838;2023-08-17T15:14:31;20.60;99.90
39371;DHT22;25099;51.946;4.838;2023-08-17T15:16:56;20.60;99.90
39371;DHT22;25099;51.946;4.838;2023-08-17T15:19:22;20.90;99.90
39371;DHT22;25099;51.946;4.838;2023-08-17T15:21:48;20.60;99.90
39371;DHT22;25099;51.946;4.838;2023-08-17T15:24:13;20.60;99.90
39371;DHT22;25099;51.946;4.838;2023-08-17T15:26:39;20.60;99.90
39371;DHT22;25099;51.946;4.838;2023-08-17T15:29:05;20.60;99.90
39371;DHT22;25099;51.946;4.838;2023-08-17T15:31:31;20.50;99.90
39371;DHT22;25099;51.946;4.838;2023-08-17T15:33:57;20.50;99.90
39371;DHT22;25099;51.946;4.838;2023-08-17T15:36:22;20.50;99.90
39371;DHT22;25099;51.946;4.838;2023-08-17T15:38:50;20.50;99.90